createdAt,value
2018-01-26T00:00:30.993Z,50.23
2018-01-26T00:02:58.619Z,51.57
2018-01-26T00:05:26.978Z,47.40
2018-01-26T00:07:54.536Z,71.87
2018-01-26T00:10:22.135Z,53.97
2018-01-26T00:12:50.432Z,61.50
2018-01-26T00:15:18.056Z,53.73
2018-01-26T00:17:45.630Z,55.90
2018-01-26T00:20:13.149Z,59.40
2018-01-26T00:22:40.809Z,60.53
2018-01-26T00:25:08.319Z,62.70
2018-01-26T00:27:36.932Z,63.17
2018-01-26T00:30:04.501Z,63.00
2018-01-26T00:32:32.124Z,53.73
2018-01-26T00:34:59.775Z,63.10
2018-01-26T00:37:27.325Z,92.43
2018-01-26T00:39:55.014Z,71.20
2018-01-26T00:42:23.326Z,71.90
2018-01-26T00:44:50.890Z,53.83
2018-01-26T00:47:19.202Z,55.90
2018-01-26T00:49:46.733Z,45.83
2018-01-26T00:52:14.337Z,49.50
2018-01-26T00:54:41.917Z,50.20
2018-01-26T00:57:10.230Z,47.43
2018-01-26T00:59:37.770Z,51.23
2018-01-26T01:02:05.345Z,52.97
2018-01-26T01:04:32.906Z,48.63
2018-01-26T01:07:00.651Z,50.03
2018-01-26T01:09:29.166Z,51.70
2018-01-26T01:11:56.827Z,55.23
2018-01-26T01:14:25.136Z,55.83
2018-01-26T01:16:53.425Z,48.70
2018-01-26T01:19:21.403Z,50.43
2018-01-26T01:21:48.957Z,54.67
2018-01-26T01:24:16.594Z,46.60
2018-01-26T01:26:44.169Z,52.40
2018-01-26T01:29:11.864Z,52.80
2018-01-26T01:31:40.367Z,49.87
2018-01-26T01:34:07.918Z,49.43
2018-01-26T01:36:35.441Z,52.63
2018-01-26T01:39:03.049Z,63.33
2018-01-26T01:41:31.726Z,60.87
2018-01-26T01:43:59.743Z,61.83
2018-01-26T01:46:28.258Z,65.43
2018-01-26T01:49:08.007Z,57.37
2018-01-26T01:51:35.541Z,53.73
2018-01-26T01:54:03.137Z,49.70
2018-01-26T01:56:30.869Z,57.37
2018-01-26T01:58:58.400Z,53.40
2018-01-26T02:01:26.032Z,55.03
2018-01-26T02:03:53.582Z,54.60
2018-01-26T02:06:22.099Z,64.23
2018-01-26T02:08:51.189Z,66.00
2018-01-26T02:11:19.499Z,68.50
2018-01-26T02:13:47.113Z,60.33
2018-01-26T02:16:14.677Z,63.17
2018-01-26T02:18:42.315Z,68.77
2018-01-26T02:21:10.874Z,64.77
2018-01-26T02:23:56.256Z,60.67
2018-01-26T02:26:23.801Z,63.43
2018-01-26T02:28:51.451Z,61.57
2018-01-26T02:31:18.968Z,61.83
2018-01-26T02:33:46.516Z,66.47
2018-01-26T02:36:14.049Z,67.03
2018-01-26T02:38:41.968Z,65.20
2018-01-26T02:41:09.487Z,76.07
2018-01-26T02:43:37.027Z,66.17
2018-01-26T02:46:04.711Z,67.03
2018-01-26T02:48:34.797Z,69.40
2018-01-26T02:51:03.035Z,62.47
2018-01-26T02:53:30.574Z,61.53
2018-01-26T02:55:58.101Z,64.87
2018-01-26T02:58:25.647Z,62.77
2018-01-26T03:00:53.168Z,56.87
2018-01-26T03:03:21.469Z,57.07
2018-01-26T03:05:48.993Z,57.27
2018-01-26T03:08:16.548Z,59.40
2018-01-26T03:10:45.716Z,55.93
2018-01-26T03:13:13.254Z,57.07
2018-01-26T03:15:40.783Z,52.73
2018-01-26T03:18:09.067Z,53.33
2018-01-26T03:20:36.655Z,55.07
2018-01-26T03:23:04.244Z,46.00
2018-01-26T03:25:32.107Z,41.93
2018-01-26T03:27:59.740Z,50.43
2018-01-26T03:30:27.339Z,51.37
2018-01-26T03:32:54.884Z,46.40
2018-01-26T03:35:22.516Z,48.37
2018-01-26T03:37:50.066Z,49.43
2018-01-26T03:40:17.594Z,43.73
2018-01-26T03:42:45.135Z,47.90
2018-01-26T03:45:12.815Z,36.40
2018-01-26T03:47:40.338Z,36.97
2018-01-26T03:50:07.857Z,33.80
2018-01-26T03:52:41.221Z,27.90
2018-01-26T03:55:09.505Z,31.83
2018-01-26T03:57:37.049Z,29.90
2018-01-26T04:00:04.593Z,23.80
2018-01-26T04:02:32.185Z,26.97
2018-01-26T04:05:00.588Z,32.13
2018-01-26T04:07:28.163Z,36.03
2018-01-26T04:09:55.731Z,33.70
2018-01-26T04:12:23.281Z,30.33
2018-01-26T04:14:50.803Z,30.80
2018-01-26T04:17:18.338Z,26.80
2018-01-26T04:19:45.873Z,28.90
2018-01-26T04:22:13.442Z,29.60
2018-01-26T04:24:40.977Z,32.13
2018-01-26T04:27:08.521Z,28.50
2018-01-26T04:29:36.032Z,24.60
2018-01-26T04:32:04.362Z,28.77
2018-01-26T04:34:33.067Z,29.90
2018-01-26T04:37:00.663Z,24.60
2018-01-26T04:39:28.246Z,34.10
2018-01-26T04:41:55.808Z,28.70
2018-01-26T04:44:23.467Z,31.57
2018-01-26T04:46:50.987Z,28.10
2018-01-26T04:49:19.290Z,39.63
2018-01-26T04:51:46.806Z,41.67
2018-01-26T04:54:14.365Z,40.90
2018-01-26T04:56:41.882Z,46.23
2018-01-26T04:59:10.194Z,56.50
2018-01-26T05:01:37.709Z,57.97
2018-01-26T05:04:05.249Z,56.10
2018-01-26T05:06:32.922Z,64.10
2018-01-26T05:09:00.653Z,63.20
2018-01-26T05:11:28.174Z,59.07
2018-01-26T05:13:56.577Z,61.10
2018-01-26T05:16:24.095Z,61.43
2018-01-26T05:18:51.624Z,56.10
2018-01-26T05:21:19.910Z,64.47
2018-01-26T05:23:47.450Z,63.83
2018-01-26T05:26:14.987Z,60.57
2018-01-26T05:28:42.641Z,61.10
2018-01-26T05:31:10.178Z,62.77
2018-01-26T05:33:37.715Z,64.57
2018-01-26T05:36:05.298Z,68.57
2018-01-26T05:38:32.922Z,70.70
2018-01-26T05:41:00.877Z,65.97
2018-01-26T05:43:28.540Z,69.00
2018-01-26T05:45:56.092Z,73.17
2018-01-26T05:48:23.636Z,75.57
2018-01-26T05:50:51.277Z,93.30
2018-01-26T05:53:18.804Z,77.97
2018-01-26T05:55:47.702Z,76.68
2018-01-26T05:58:15.254Z,74.10
2018-01-26T06:00:42.796Z,79.33
2018-01-26T06:03:10.324Z,76.83
2018-01-26T06:05:37.833Z,84.20
2018-01-26T06:08:06.130Z,83.37
2018-01-26T06:10:33.688Z,81.33
2018-01-26T06:13:01.534Z,80.23
2018-01-26T06:15:29.047Z,92.33
2018-01-26T06:17:56.581Z,84.00
2018-01-26T06:20:29.132Z,75.13
2018-01-26T06:22:56.698Z,80.67
2018-01-26T06:25:24.225Z,84.13
2018-01-26T06:27:52.631Z,77.33
2018-01-26T06:30:20.156Z,85.23
2018-01-26T06:32:47.692Z,79.27
2018-01-26T06:35:15.216Z,86.50
2018-01-26T06:37:43.531Z,100.50
2018-01-26T06:40:11.070Z,81.83
2018-01-26T06:42:38.593Z,82.90
2018-01-26T06:45:06.127Z,92.00
2018-01-26T06:47:33.691Z,89.60
2018-01-26T06:50:03.111Z,86.73
2018-01-26T06:52:30.987Z,86.90
2018-01-26T06:54:58.584Z,90.87
2018-01-26T06:57:26.170Z,92.77
2018-01-26T06:59:53.728Z,98.07
2018-01-26T07:02:21.277Z,83.73
2018-01-26T07:04:49.687Z,102.20
2018-01-26T07:07:17.205Z,95.07
2018-01-26T07:09:44.753Z,86.37
2018-01-26T07:12:12.275Z,96.47
2018-01-26T07:14:40.583Z,103.43
2018-01-26T07:17:08.135Z,98.53
2018-01-26T07:19:35.681Z,103.13
2018-01-26T07:22:03.270Z,100.60
2018-01-26T07:24:31.878Z,114.90
2018-01-26T07:26:59.980Z,136.67
2018-01-26T07:29:27.555Z,116.40
2018-01-26T07:31:55.084Z,105.03
2018-01-26T07:34:23.396Z,101.13
2018-01-26T07:36:50.911Z,114.70
2018-01-26T07:39:18.475Z,109.83
2018-01-26T07:41:46.291Z,93.20
2018-01-26T07:44:13.852Z,95.30
2018-01-26T07:46:41.394Z,101.23
2018-01-26T07:49:08.938Z,115.13
2018-01-26T07:51:36.516Z,101.73
2018-01-26T07:54:04.117Z,102.33
2018-01-26T07:56:31.684Z,105.27
2018-01-26T07:58:59.421Z,111.30
2018-01-26T08:01:27.007Z,111.50
2018-01-26T08:03:54.629Z,100.30
2018-01-26T08:06:22.186Z,115.70
2018-01-26T08:08:50.589Z,110.32
2018-01-26T08:11:18.136Z,117.43
2018-01-26T08:13:45.748Z,123.37
2018-01-26T08:16:13.313Z,120.33
2018-01-26T08:18:40.850Z,120.30
2018-01-26T08:21:08.387Z,113.90
2018-01-26T08:23:35.909Z,116.43
2018-01-26T08:26:03.491Z,129.77
2018-01-26T08:28:31.146Z,113.27
2018-01-26T08:30:58.669Z,112.77
2018-01-26T08:33:26.332Z,123.07
2018-01-26T08:35:53.854Z,123.40
2018-01-26T08:38:21.413Z,113.77
2018-01-26T08:40:49.997Z,113.50
2018-01-26T08:43:18.130Z,118.77
2018-01-26T08:45:45.667Z,114.03
2018-01-26T08:48:13.391Z,113.90
2018-01-26T08:50:40.951Z,118.80
2018-01-26T08:53:08.483Z,117.40
2018-01-26T08:55:36.010Z,117.07
2018-01-26T08:58:03.668Z,112.10
2018-01-26T09:00:31.345Z,118.07
2018-01-26T09:02:58.926Z,120.40
2018-01-26T09:05:26.541Z,113.23
2018-01-26T09:07:54.062Z,107.40
2018-01-26T09:10:21.591Z,105.10
2018-01-26T09:12:49.115Z,115.20
2018-01-26T09:15:16.676Z,111.40
2018-01-26T09:17:44.187Z,110.90
2018-01-26T09:20:11.734Z,117.60
2018-01-26T09:22:39.372Z,124.77
2018-01-26T09:25:06.964Z,110.43
2018-01-26T09:27:35.304Z,118.73
2018-01-26T09:30:02.924Z,117.43
2018-01-26T09:32:30.544Z,119.93
2018-01-26T09:34:58.108Z,122.23
2018-01-26T09:37:25.708Z,118.07
2018-01-26T09:39:53.371Z,118.10
2018-01-26T09:42:21.728Z,124.90
2018-01-26T09:44:50.022Z,126.87
2018-01-26T09:47:17.611Z,120.17
2018-01-26T09:49:45.133Z,121.00
2018-01-26T09:52:12.708Z,127.90
2018-01-26T09:54:40.330Z,116.40
2018-01-26T09:57:07.866Z,123.50
2018-01-26T09:59:35.400Z,115.90
2018-01-26T10:02:04.312Z,135.93
2018-01-26T10:04:32.441Z,122.50
2018-01-26T10:07:00.235Z,136.67
2018-01-26T10:09:27.819Z,130.63
2018-01-26T10:11:55.360Z,129.10
2018-01-26T10:14:22.871Z,140.80
2018-01-26T10:16:51.228Z,131.03
2018-01-26T10:19:18.766Z,134.83
2018-01-26T10:21:47.798Z,119.63
2018-01-26T10:24:15.339Z,149.07
2018-01-26T10:26:42.874Z,135.13
2018-01-26T10:29:10.414Z,127.97
2018-01-26T10:31:37.936Z,135.87
2018-01-26T10:34:06.235Z,150.00
2018-01-26T10:36:33.972Z,124.10
2018-01-26T10:39:01.572Z,144.00
2018-01-26T10:41:29.324Z,143.37
2018-01-26T10:43:56.952Z,137.47
2018-01-26T10:46:25.457Z,124.50
2018-01-26T10:48:54.698Z,139.50
2018-01-26T10:51:22.221Z,129.83
2018-01-26T10:53:49.908Z,124.43
2018-01-26T10:56:17.472Z,121.23
2018-01-26T10:58:44.999Z,146.60
2018-01-26T11:01:12.541Z,134.83
2018-01-26T11:03:40.089Z,143.33
2018-01-26T11:06:07.661Z,151.43
2018-01-26T11:08:35.974Z,128.63
2018-01-26T11:11:03.601Z,127.37
2018-01-26T11:13:31.163Z,128.10
2018-01-26T11:15:59.555Z,146.00
2018-01-26T11:18:27.847Z,128.03
2018-01-26T11:20:56.147Z,136.50
2018-01-26T11:23:23.671Z,147.00
2018-01-26T11:25:51.219Z,145.20
2018-01-26T11:28:18.790Z,142.20
2018-01-26T11:30:46.329Z,124.03
2018-01-26T11:33:13.858Z,141.27
2018-01-26T11:35:41.417Z,147.60
2018-01-26T11:38:08.975Z,131.60
2018-01-26T11:40:36.493Z,140.77
2018-01-26T11:43:04.519Z,123.33
2018-01-26T11:45:32.283Z,116.37
2018-01-26T11:48:00.799Z,105.43
2018-01-26T11:50:30.053Z,120.20
2018-01-26T11:52:57.645Z,104.97
2018-01-26T11:55:25.175Z,91.93
2018-01-26T11:57:52.733Z,81.73
2018-01-26T12:00:20.267Z,71.03
2018-01-26T12:02:47.808Z,68.90
2018-01-26T12:05:16.824Z,63.97
2018-01-26T12:07:44.403Z,59.33
2018-01-26T12:10:11.938Z,58.17
2018-01-26T12:12:39.464Z,60.33
2018-01-26T12:15:07.063Z,60.70
2018-01-26T12:17:36.116Z,46.97
2018-01-26T12:20:05.434Z,47.70
2018-01-26T12:22:33.092Z,39.47
2018-01-26T12:25:00.680Z,45.47
2018-01-26T12:27:28.239Z,43.83
2018-01-26T12:29:56.702Z,49.23
2018-01-26T12:32:24.237Z,23.13
2018-01-26T12:34:51.779Z,30.03
2018-01-26T12:37:19.322Z,30.60
2018-01-26T12:39:46.944Z,29.80
2018-01-26T12:42:15.220Z,30.50
2018-01-26T12:44:42.789Z,25.93
2018-01-26T12:47:10.370Z,24.23
2018-01-26T12:49:38.688Z,22.27
2018-01-26T12:52:06.211Z,20.50
2018-01-26T12:54:33.753Z,18.33
2018-01-26T12:57:02.452Z,14.53
2018-01-26T12:59:30.011Z,22.40
2018-01-26T13:01:57.547Z,20.07
2018-01-26T13:04:25.092Z,19.53
2018-01-26T13:06:52.618Z,20.37
2018-01-26T13:09:20.156Z,17.40
2018-01-26T13:11:47.686Z,16.90
2018-01-26T13:14:15.215Z,22.63
2018-01-26T13:16:43.526Z,22.00
2018-01-26T13:19:11.092Z,18.33
2018-01-26T13:21:38.641Z,21.10
2018-01-26T13:24:06.147Z,17.70
2018-01-26T13:26:33.812Z,17.37
2018-01-26T13:29:01.590Z,22.87
2018-01-26T13:31:30.040Z,15.87
2018-01-26T13:33:58.659Z,18.15
2018-01-26T13:36:28.095Z,14.87
2018-01-26T13:38:56.302Z,18.50
2018-01-26T13:41:24.621Z,13.27
2018-01-26T13:43:52.160Z,18.30
2018-01-26T13:46:19.796Z,18.37
2018-01-26T13:48:47.328Z,18.03
2018-01-26T13:51:14.989Z,17.77
2018-01-26T13:53:42.543Z,17.80
2018-01-26T13:56:10.077Z,23.27
2018-01-26T13:58:37.608Z,19.80
2018-01-26T14:01:05.137Z,25.40
2018-01-26T14:03:33.092Z,27.17
2018-01-26T14:06:00.728Z,25.73
2018-01-26T14:08:28.345Z,18.70
2018-01-26T14:10:56.054Z,22.73
2018-01-26T14:13:23.593Z,25.17
2018-01-26T14:15:52.125Z,27.57
2018-01-26T14:18:20.484Z,30.43
2018-01-26T14:20:48.792Z,44.27
2018-01-26T14:23:16.386Z,17.67
2018-01-26T14:25:45.057Z,12.63
2018-01-26T14:28:12.604Z,16.70
2018-01-26T14:30:40.937Z,15.60
2018-01-26T14:33:08.591Z,14.67
2018-01-26T14:35:36.115Z,14.77
2018-01-26T14:38:03.963Z,19.43
2018-01-26T14:40:32.110Z,25.90
2018-01-26T14:43:00.482Z,13.83
2018-01-26T14:45:28.025Z,13.23
2018-01-26T14:47:55.556Z,11.70
2018-01-26T14:50:23.090Z,19.97
2018-01-26T14:52:50.611Z,13.00
2018-01-26T14:55:18.149Z,12.70
2018-01-26T14:57:46.463Z,19.03
2018-01-26T15:00:13.994Z,12.00
2018-01-26T15:02:41.645Z,15.80
2018-01-26T15:05:09.268Z,15.97
2018-01-26T15:07:36.921Z,20.60
2018-01-26T15:10:04.448Z,27.40
2018-01-26T15:12:32.912Z,23.50
2018-01-26T15:15:01.713Z,22.77
2018-01-26T15:17:29.401Z,19.20
2018-01-26T15:19:57.755Z,19.70
2018-01-26T15:22:25.400Z,20.63
2018-01-26T15:24:53.206Z,21.10
2018-01-26T15:27:20.750Z,25.97
2018-01-26T15:29:48.293Z,22.03
2018-01-26T15:32:15.850Z,19.03
2018-01-26T15:34:43.385Z,21.00
2018-01-26T15:37:10.927Z,20.03
2018-01-26T15:39:38.615Z,17.93
2018-01-26T15:42:06.164Z,18.40
2018-01-26T15:44:33.827Z,14.30
2018-01-26T15:47:02.251Z,21.95
2018-01-26T15:49:29.803Z,20.47
2018-01-26T15:51:57.347Z,16.43
2018-01-26T15:54:24.898Z,16.23
2018-01-26T15:56:53.441Z,17.53
2018-01-26T15:59:20.967Z,22.93
2018-01-26T16:01:48.483Z,24.00
2018-01-26T16:04:16.037Z,34.07
2018-01-26T16:06:44.326Z,20.90
2018-01-26T16:09:11.866Z,17.43
2018-01-26T16:11:39.415Z,20.97
2018-01-26T16:14:06.956Z,25.50
2018-01-26T16:16:35.283Z,32.23
2018-01-26T16:19:04.465Z,31.57
2018-01-26T16:21:32.220Z,31.50
2018-01-26T16:24:00.587Z,29.37
2018-01-26T16:26:28.148Z,31.93
2018-01-26T16:28:56.473Z,34.93
2018-01-26T16:31:23.979Z,46.53
2018-01-26T16:33:51.614Z,38.00
2018-01-26T16:36:19.128Z,29.20
2018-01-26T16:38:47.445Z,29.13
2018-01-26T16:41:15.040Z,33.63
2018-01-26T16:43:44.336Z,32.40
2018-01-26T16:46:12.667Z,32.53
2018-01-26T16:48:40.179Z,31.03
2018-01-26T16:51:07.729Z,43.60
2018-01-26T16:53:35.279Z,31.73
2018-01-26T16:56:03.646Z,36.27
2018-01-26T16:58:32.470Z,40.37
2018-01-26T17:01:01.394Z,32.80
2018-01-26T17:03:28.990Z,35.93
2018-01-26T17:05:56.555Z,28.10
2018-01-26T17:08:24.082Z,35.60
2018-01-26T17:10:51.645Z,31.73
2018-01-26T17:13:20.093Z,37.50
2018-01-26T17:15:48.417Z,35.03
2018-01-26T17:18:15.961Z,37.10
2018-01-26T17:20:43.490Z,36.97
2018-01-26T17:23:11.031Z,39.70
2018-01-26T17:25:38.583Z,42.70
2018-01-26T17:28:07.043Z,33.80
2018-01-26T17:30:34.676Z,37.33
2018-01-26T17:33:02.230Z,38.23
2018-01-26T17:35:29.791Z,35.83
2018-01-26T17:37:57.400Z,39.07
2018-01-26T17:40:24.971Z,48.67
2018-01-26T17:42:52.508Z,39.27
2018-01-26T17:45:20.023Z,43.10
2018-01-26T17:47:47.602Z,40.13
2018-01-26T17:50:15.158Z,47.83
2018-01-26T17:52:42.681Z,49.07
2018-01-26T17:55:10.211Z,41.22
2018-01-26T17:57:37.727Z,48.47
2018-01-26T18:00:06.023Z,44.67
2018-01-26T18:02:33.786Z,46.57
2018-01-26T18:05:01.743Z,43.73
2018-01-26T18:07:29.316Z,38.73
2018-01-26T18:09:57.839Z,67.23
2018-01-26T18:12:25.357Z,49.30
2018-01-26T18:14:53.779Z,55.20
2018-01-26T18:17:21.303Z,49.37
2018-01-26T18:19:49.067Z,75.33
2018-01-26T18:22:18.443Z,45.40
2018-01-26T18:24:46.080Z,64.33
2018-01-26T18:27:14.663Z,66.10
2018-01-26T18:29:42.204Z,68.33
2018-01-26T18:32:09.770Z,61.30
2018-01-26T18:34:37.349Z,50.80
2018-01-26T18:37:05.677Z,53.75
2018-01-26T18:39:33.217Z,53.90
2018-01-26T18:42:00.913Z,55.20
2018-01-26T18:44:28.448Z,56.27
2018-01-26T18:46:57.180Z,51.20
2018-01-26T18:49:24.698Z,50.85
2018-01-26T18:51:52.247Z,55.20
2018-01-26T18:54:19.762Z,51.20
2018-01-26T18:56:48.060Z,54.57
2018-01-26T18:59:15.587Z,49.63
2018-01-26T19:01:43.423Z,57.90
2018-01-26T19:04:10.993Z,65.67
2018-01-26T19:06:39.361Z,57.97
2018-01-26T19:09:07.880Z,49.23
2018-01-26T19:11:36.167Z,65.17
2018-01-26T19:14:04.348Z,66.00
2018-01-26T19:16:32.164Z,58.57
2018-01-26T19:19:00.639Z,64.23
2018-01-26T19:21:28.146Z,74.30
2018-01-26T19:23:55.694Z,65.23
2018-01-26T19:26:23.216Z,65.37
2018-01-26T19:28:50.764Z,70.07
2018-01-26T19:31:18.295Z,69.03
2018-01-26T19:33:45.825Z,70.87
2018-01-26T19:36:13.397Z,57.00
2018-01-26T19:38:41.738Z,73.17
2018-01-26T19:41:09.270Z,73.03
2018-01-26T19:43:36.828Z,69.10
2018-01-26T19:46:04.359Z,66.47
2018-01-26T19:48:32.491Z,58.50
2018-01-26T19:51:01.002Z,61.77
2018-01-26T19:53:29.362Z,70.03
2018-01-26T19:55:56.901Z,57.50
2018-01-26T19:58:24.410Z,54.70
2018-01-26T20:00:52.728Z,59.13
2018-01-26T20:03:30.710Z,60.10
2018-01-26T20:06:04.066Z,57.50
2018-01-26T20:11:35.470Z,60.73
2018-01-26T20:14:03.022Z,70.30
2018-01-26T20:16:31.378Z,64.60
2018-01-26T20:18:58.949Z,68.00
2018-01-26T20:21:26.489Z,63.00
2018-01-26T20:23:54.066Z,58.87
2018-01-26T20:26:21.739Z,59.90
2018-01-26T20:28:49.265Z,61.10
2018-01-26T20:31:16.814Z,58.77
2018-01-26T20:33:44.362Z,61.37
2018-01-26T20:36:11.896Z,67.77
2018-01-26T20:38:39.429Z,64.93
2018-01-26T20:41:06.975Z,61.80
2018-01-26T20:43:34.512Z,72.13
2018-01-26T20:46:02.058Z,74.17
2018-01-26T20:48:30.497Z,58.72
2018-01-26T20:50:58.104Z,84.00
2018-01-26T20:53:25.644Z,77.67
2018-01-26T20:55:54.682Z,79.47
2018-01-26T20:58:22.223Z,73.30
2018-01-26T21:00:49.742Z,81.87
2018-01-26T21:03:17.301Z,78.13
2018-01-26T21:05:44.811Z,63.10
2018-01-26T21:08:13.128Z,72.97
2018-01-26T21:10:40.655Z,75.70
2018-01-26T21:13:09.133Z,67.10
2018-01-26T21:15:36.656Z,65.97
2018-01-26T21:18:04.259Z,70.77
2018-01-26T21:20:31.988Z,64.13
2018-01-26T21:22:59.551Z,81.80
2018-01-26T21:25:27.076Z,78.43
2018-01-26T21:27:54.620Z,75.00
2018-01-26T21:30:22.132Z,69.90
2018-01-26T21:32:49.903Z,75.30
2018-01-26T21:35:17.447Z,80.70
2018-01-26T21:37:44.976Z,75.60
2018-01-26T21:40:12.500Z,80.87
2018-01-26T21:42:40.193Z,71.57
2018-01-26T21:45:07.738Z,68.53
2018-01-26T21:47:35.254Z,78.27
2018-01-26T21:50:02.942Z,67.77
2018-01-26T21:52:31.459Z,74.37
2018-01-26T21:54:58.986Z,77.60
2018-01-26T21:57:27.396Z,77.27
2018-01-26T21:59:54.939Z,84.77
2018-01-26T22:02:22.510Z,80.83
2018-01-26T22:04:55.883Z,84.70
2018-01-26T22:07:29.344Z,90.80
2018-01-26T22:09:56.918Z,64.27
2018-01-26T22:12:25.244Z,92.03
2018-01-26T22:14:52.825Z,89.83
2018-01-26T22:17:20.365Z,96.53
2018-01-26T22:19:47.902Z,90.23
2018-01-26T22:22:15.457Z,92.90
2018-01-26T22:24:42.988Z,90.60
2018-01-26T22:27:11.744Z,101.97
2018-01-26T22:29:39.265Z,105.10
2018-01-26T22:32:06.807Z,110.30
2018-01-26T22:34:34.370Z,103.10
2018-01-26T22:37:01.984Z,110.77
2018-01-26T22:39:30.308Z,91.97
2018-01-26T22:41:57.864Z,107.93
2018-01-26T22:44:25.478Z,127.77
2018-01-26T22:46:53.026Z,102.13
2018-01-26T22:49:20.549Z,104.27
2018-01-26T22:51:48.100Z,100.03
2018-01-26T22:54:15.612Z,99.70
2018-01-26T22:56:43.988Z,112.57
2018-01-26T22:59:11.544Z,111.97
2018-01-26T23:01:39.109Z,108.27
2018-01-26T23:04:07.064Z,104.47
2018-01-26T23:06:34.637Z,93.70
2018-01-26T23:09:03.071Z,101.43
2018-01-26T23:11:31.223Z,105.50
2018-01-26T23:13:58.795Z,108.83
2018-01-26T23:16:26.303Z,113.18
2018-01-26T23:18:53.885Z,115.90
2018-01-26T23:21:21.405Z,110.13
2018-01-26T23:23:48.961Z,112.83
2018-01-26T23:26:17.464Z,105.07
2018-01-26T23:28:45.020Z,101.60
2018-01-26T23:31:12.583Z,117.73
2018-01-26T23:33:40.136Z,117.10
2018-01-26T23:36:07.749Z,123.03
2018-01-26T23:38:35.354Z,106.23
2018-01-26T23:41:02.921Z,117.10
2018-01-26T23:43:32.517Z,114.70
2018-01-26T23:46:00.157Z,100.57
2018-01-26T23:48:27.685Z,116.27
2018-01-26T23:50:55.249Z,109.57
2018-01-26T23:53:22.812Z,119.73
2018-01-26T23:55:51.146Z,111.10
2018-01-26T23:58:18.710Z,114.37
